sensor_id;sensor_type;location;lat;lon;timestamp;P1;durP1;ratioP1;P2;durP2;ratioP2
9294;SDS011;4686;44.496;11.324;2023-05-07T00:00:52;4.33;;;4.03;;
9294;SDS011;4686;44.496;11.324;2023-05-07T00:03:20;4.10;;;3.80;;
9294;SDS011;4686;44.496;11.324;2023-05-07T00:05:47;4.70;;;4.30;;
9294;SDS011;4686;44.496;11.324;2023-05-07T00:08:14;4.50;;;4.17;;
9294;SDS011;4686;44.496;11.324;2023-05-07T00:10:41;6.17;;;5.37;;
9294;SDS011;4686;44.496;11.324;2023-05-07T00:13:09;4.67;;;4.27;;
9294;SDS011;4686;44.496;11.324;2023-05-07T00:15:36;7.83;;;4.90;;
9294;SDS011;4686;44.496;11.324;2023-05-07T00:18:04;5.20;;;4.33;;
9294;SDS011;4686;44.496;11.324;2023-05-07T00:20:32;5.43;;;4.93;;
9294;SDS011;4686;44.496;11.324;2023-05-07T00:22:59;5.10;;;4.73;;
9294;SDS011;4686;44.496;11.324;2023-05-07T00:25:27;4.80;;;4.40;;
9294;SDS011;4686;44.496;11.324;2023-05-07T00:27:54;5.23;;;4.87;;
9294;SDS011;4686;44.496;11.324;2023-05-07T00:30:22;6.30;;;4.30;;
9294;SDS011;4686;44.496;11.324;2023-05-07T00:32:50;7.63;;;4.07;;
9294;SDS011;4686;44.496;11.324;2023-05-07T00:35:19;4.47;;;4.07;;
9294;SDS011;4686;44.496;11.324;2023-05-07T00:37:47;4.73;;;4.33;;
9294;SDS011;4686;44.496;11.324;2023-05-07T00:40:15;4.97;;;4.47;;
9294;SDS011;4686;44.496;11.324;2023-05-07T00:42:42;5.17;;;4.73;;
9294;SDS011;4686;44.496;11.324;2023-05-07T00:45:12;4.47;;;4.17;;
9294;SDS011;4686;44.496;11.324;2023-05-07T00:47:39;5.17;;;4.17;;
9294;SDS011;4686;44.496;11.324;2023-05-07T00:50:07;4.63;;;3.77;;
9294;SDS011;4686;44.496;11.324;2023-05-07T00:52:36;4.20;;;4.00;;
9294;SDS011;4686;44.496;11.324;2023-05-07T00:55:05;4.83;;;4.43;;
9294;SDS011;4686;44.496;11.324;2023-05-07T00:57:32;5.70;;;3.80;;
9294;SDS011;4686;44.496;11.324;2023-05-07T01:00:00;9.77;;;5.00;;
9294;SDS011;4686;44.496;11.324;2023-05-07T01:02:28;4.37;;;4.07;;
9294;SDS011;4686;44.496;11.324;2023-05-07T01:04:56;5.00;;;4.30;;
9294;SDS011;4686;44.496;11.324;2023-05-07T01:07:25;4.27;;;3.93;;
9294;SDS011;4686;44.496;11.324;2023-05-07T01:09:55;4.40;;;4.00;;
9294;SDS011;4686;44.496;11.324;2023-05-07T01:12:23;4.53;;;4.23;;
9294;SDS011;4686;44.496;11.324;2023-05-07T01:14:52;5.07;;;4.67;;
9294;SDS011;4686;44.496;11.324;2023-05-07T01:17:19;4.50;;;4.10;;
9294;SDS011;4686;44.496;11.324;2023-05-07T01:19:47;4.40;;;4.10;;
9294;SDS011;4686;44.496;11.324;2023-05-07T01:22:16;4.40;;;4.00;;
9294;SDS011;4686;44.496;11.324;2023-05-07T01:24:45;5.30;;;4.80;;
9294;SDS011;4686;44.496;11.324;2023-05-07T01:27:13;4.50;;;4.20;;
9294;SDS011;4686;44.496;11.324;2023-05-07T01:29:40;4.73;;;3.97;;
9294;SDS011;4686;44.496;11.324;2023-05-07T01:32:08;4.60;;;4.20;;
9294;SDS011;4686;44.496;11.324;2023-05-07T01:34:36;5.20;;;4.80;;
9294;SDS011;4686;44.496;11.324;2023-05-07T01:37:06;4.47;;;4.17;;
9294;SDS011;4686;44.496;11.324;2023-05-07T01:39:33;10.13;;;4.20;;
9294;SDS011;4686;44.496;11.324;2023-05-07T01:42:02;9.10;;;4.37;;
9294;SDS011;4686;44.496;11.324;2023-05-07T01:44:30;7.73;;;4.30;;
9294;SDS011;4686;44.496;11.324;2023-05-07T01:46:57;4.70;;;4.40;;
9294;SDS011;4686;44.496;11.324;2023-05-07T01:49:25;4.57;;;4.27;;
9294;SDS011;4686;44.496;11.324;2023-05-07T01:51:53;4.90;;;4.40;;
9294;SDS011;4686;44.496;11.324;2023-05-07T01:54:24;5.30;;;4.90;;
9294;SDS011;4686;44.496;11.324;2023-05-07T01:56:53;6.37;;;4.67;;
9294;SDS011;4686;44.496;11.324;2023-05-07T01:59:22;5.07;;;4.67;;
9294;SDS011;4686;44.496;11.324;2023-05-07T02:01:50;5.10;;;4.70;;
9294;SDS011;4686;44.496;11.324;2023-05-07T02:04:17;4.60;;;4.20;;
9294;SDS011;4686;44.496;11.324;2023-05-07T02:06:44;6.23;;;4.73;;
9294;SDS011;4686;44.496;11.324;2023-05-07T02:09:11;4.60;;;4.30;;
9294;SDS011;4686;44.496;11.324;2023-05-07T02:11:40;4.77;;;4.33;;
9294;SDS011;4686;44.496;11.324;2023-05-07T02:14:07;4.73;;;4.33;;
9294;SDS011;4686;44.496;11.324;2023-05-07T02:16:36;5.30;;;4.80;;
9294;SDS011;4686;44.496;11.324;2023-05-07T02:19:03;6.03;;;4.20;;
9294;SDS011;4686;44.496;11.324;2023-05-07T02:21:31;5.40;;;4.30;;
9294;SDS011;4686;44.496;11.324;2023-05-07T02:23:58;4.70;;;4.30;;
9294;SDS011;4686;44.496;11.324;2023-05-07T02:26:26;4.30;;;4.10;;
9294;SDS011;4686;44.496;11.324;2023-05-07T02:28:53;5.83;;;4.30;;
9294;SDS011;4686;44.496;11.324;2023-05-07T02:31:20;5.93;;;5.00;;
9294;SDS011;4686;44.496;11.324;2023-05-07T02:33:50;5.10;;;4.50;;
9294;SDS011;4686;44.496;11.324;2023-05-07T02:36:17;4.83;;;4.43;;
9294;SDS011;4686;44.496;11.324;2023-05-07T02:38:45;5.27;;;4.63;;
9294;SDS011;4686;44.496;11.324;2023-05-07T02:41:12;4.47;;;4.17;;
9294;SDS011;4686;44.496;11.324;2023-05-07T02:43:39;4.17;;;3.87;;
9294;SDS011;4686;44.496;11.324;2023-05-07T02:46:08;4.33;;;4.00;;
9294;SDS011;4686;44.496;11.324;2023-05-07T02:48:35;5.37;;;4.97;;
9294;SDS011;4686;44.496;11.324;2023-05-07T02:51:04;4.90;;;4.47;;
9294;SDS011;4686;44.496;11.324;2023-05-07T02:53:31;5.63;;;4.50;;
9294;SDS011;4686;44.496;11.324;2023-05-07T02:56:00;4.77;;;4.47;;
9294;SDS011;4686;44.496;11.324;2023-05-07T02:58:27;4.73;;;4.33;;
9294;SDS011;4686;44.496;11.324;2023-05-07T03:00:54;5.27;;;4.87;;
9294;SDS011;4686;44.496;11.324;2023-05-07T03:03:22;4.97;;;4.10;;
9294;SDS011;4686;44.496;11.324;2023-05-07T03:05:49;4.70;;;4.40;;
9294;SDS011;4686;44.496;11.324;2023-05-07T03:08:17;4.70;;;4.40;;
9294;SDS011;4686;44.496;11.324;2023-05-07T03:10:45;5.27;;;4.77;;
9294;SDS011;4686;44.496;11.324;2023-05-07T03:13:12;4.73;;;4.37;;
9294;SDS011;4686;44.496;11.324;2023-05-07T03:15:39;4.90;;;4.50;;
9294;SDS011;4686;44.496;11.324;2023-05-07T03:18:07;5.13;;;4.37;;
9294;SDS011;4686;44.496;11.324;2023-05-07T03:20:34;5.00;;;4.57;;
9294;SDS011;4686;44.496;11.324;2023-05-07T03:23:01;4.50;;;4.30;;
9294;SDS011;4686;44.496;11.324;2023-05-07T03:25:30;5.30;;;4.20;;
9294;SDS011;4686;44.496;11.324;2023-05-07T03:27:57;4.77;;;4.47;;
9294;SDS011;4686;44.496;11.324;2023-05-07T03:30:24;4.50;;;4.20;;
9294;SDS011;4686;44.496;11.324;2023-05-07T03:32:52;5.03;;;4.67;;
9294;SDS011;4686;44.496;11.324;2023-05-07T03:35:19;5.00;;;4.50;;
9294;SDS011;4686;44.496;11.324;2023-05-07T03:37:47;4.97;;;4.60;;
9294;SDS011;4686;44.496;11.324;2023-05-07T03:40:14;5.33;;;4.93;;
9294;SDS011;4686;44.496;11.324;2023-05-07T03:42:43;5.20;;;4.87;;
9294;SDS011;4686;44.496;11.324;2023-05-07T03:45:10;4.63;;;4.30;;
9294;SDS011;4686;44.496;11.324;2023-05-07T03:47:37;5.33;;;4.40;;
9294;SDS011;4686;44.496;11.324;2023-05-07T03:50:05;5.20;;;4.50;;
9294;SDS011;4686;44.496;11.324;2023-05-07T03:52:32;5.20;;;4.80;;
9294;SDS011;4686;44.496;11.324;2023-05-07T03:55:00;5.50;;;4.67;;
9294;SDS011;4686;44.496;11.324;2023-05-07T03:57:27;4.23;;;4.03;;
9294;SDS011;4686;44.496;11.324;2023-05-07T03:59:56;4.87;;;4.57;;
9294;SDS011;4686;44.496;11.324;2023-05-07T04:02:23;4.43;;;4.13;;
9294;SDS011;4686;44.496;11.324;2023-05-07T04:04:50;4.50;;;4.30;;
9294;SDS011;4686;44.496;11.324;2023-05-07T04:07:19;4.53;;;4.23;;
9294;SDS011;4686;44.496;11.324;2023-05-07T04:09:46;4.93;;;4.53;;
9294;SDS011;4686;44.496;11.324;2023-05-07T04:12:14;6.17;;;4.70;;
9294;SDS011;4686;44.496;11.324;2023-05-07T04:14:42;5.23;;;4.20;;
9294;SDS011;4686;44.496;11.324;2023-05-07T04:17:11;4.87;;;4.40;;
9294;SDS011;4686;44.496;11.324;2023-05-07T04:19:38;7.30;;;4.23;;
9294;SDS011;4686;44.496;11.324;2023-05-07T04:22:10;12.80;;;4.87;;
9294;SDS011;4686;44.496;11.324;2023-05-07T04:24:38;4.33;;;4.03;;
9294;SDS011;4686;44.496;11.324;2023-05-07T04:27:05;5.40;;;4.30;;
9294;SDS011;4686;44.496;11.324;2023-05-07T04:29:33;4.63;;;4.33;;
9294;SDS011;4686;44.496;11.324;2023-05-07T04:32:01;4.77;;;4.43;;
9294;SDS011;4686;44.496;11.324;2023-05-07T04:34:30;5.33;;;4.70;;
9294;SDS011;4686;44.496;11.324;2023-05-07T04:36:58;6.67;;;4.77;;
9294;SDS011;4686;44.496;11.324;2023-05-07T04:39:25;5.27;;;4.80;;
9294;SDS011;4686;44.496;11.324;2023-05-07T04:41:53;8.47;;;4.20;;
9294;SDS011;4686;44.496;11.324;2023-05-07T04:44:22;4.33;;;4.03;;
9294;SDS011;4686;44.496;11.324;2023-05-07T04:46:50;5.03;;;4.40;;
9294;SDS011;4686;44.496;11.324;2023-05-07T04:49:17;4.90;;;4.50;;
9294;SDS011;4686;44.496;11.324;2023-05-07T04:51:46;6.00;;;4.70;;
9294;SDS011;4686;44.496;11.324;2023-05-07T04:54:13;4.77;;;4.40;;
9294;SDS011;4686;44.496;11.324;2023-05-07T04:56:41;4.70;;;4.30;;
9294;SDS011;4686;44.496;11.324;2023-05-07T04:59:08;5.80;;;5.03;;
9294;SDS011;4686;44.496;11.324;2023-05-07T05:01:36;5.40;;;4.17;;
9294;SDS011;4686;44.496;11.324;2023-05-07T05:04:03;5.23;;;4.70;;
9294;SDS011;4686;44.496;11.324;2023-05-07T05:06:30;4.87;;;4.47;;
9294;SDS011;4686;44.496;11.324;2023-05-07T05:08:59;5.27;;;4.87;;
9294;SDS011;4686;44.496;11.324;2023-05-07T05:11:26;5.90;;;5.03;;
9294;SDS011;4686;44.496;11.324;2023-05-07T05:13:53;6.73;;;4.83;;
9294;SDS011;4686;44.496;11.324;2023-05-07T05:16:21;6.70;;;5.03;;
9294;SDS011;4686;44.496;11.324;2023-05-07T05:18:48;5.47;;;5.07;;
9294;SDS011;4686;44.496;11.324;2023-05-07T05:21:17;5.83;;;5.33;;
9294;SDS011;4686;44.496;11.324;2023-05-07T05:23:44;5.40;;;5.00;;
9294;SDS011;4686;44.496;11.324;2023-05-07T05:26:13;5.63;;;5.23;;
9294;SDS011;4686;44.496;11.324;2023-05-07T05:28:41;5.27;;;4.90;;
9294;SDS011;4686;44.496;11.324;2023-05-07T05:31:08;7.30;;;5.93;;
9294;SDS011;4686;44.496;11.324;2023-05-07T05:33:35;7.73;;;7.03;;
9294;SDS011;4686;44.496;11.324;2023-05-07T05:36:03;11.00;;;8.47;;
9294;SDS011;4686;44.496;11.324;2023-05-07T05:38:30;12.90;;;11.60;;
9294;SDS011;4686;44.496;11.324;2023-05-07T05:40:57;17.40;;;13.40;;
9294;SDS011;4686;44.496;11.324;2023-05-07T05:43:26;14.50;;;13.20;;
9294;SDS011;4686;44.496;11.324;2023-05-07T05:45:56;15.17;;;13.80;;
9294;SDS011;4686;44.496;11.324;2023-05-07T05:48:23;16.43;;;14.67;;
9294;SDS011;4686;44.496;11.324;2023-05-07T05:50:51;15.80;;;13.13;;
9294;SDS011;4686;44.496;11.324;2023-05-07T05:53:18;14.03;;;12.73;;
9294;SDS011;4686;44.496;11.324;2023-05-07T05:55:46;13.00;;;11.80;;
9294;SDS011;4686;44.496;11.324;2023-05-07T05:58:13;15.03;;;11.10;;
9294;SDS011;4686;44.496;11.324;2023-05-07T06:00:43;11.27;;;10.27;;
9294;SDS011;4686;44.496;11.324;2023-05-07T06:03:12;12.50;;;11.23;;
9294;SDS011;4686;44.496;11.324;2023-05-07T06:05:39;12.57;;;10.60;;
9294;SDS011;4686;44.496;11.324;2023-05-07T06:08:06;13.60;;;12.40;;
9294;SDS011;4686;44.496;11.324;2023-05-07T06:10:33;14.80;;;12.27;;
9294;SDS011;4686;44.496;11.324;2023-05-07T06:13:02;14.33;;;12.23;;
9294;SDS011;4686;44.496;11.324;2023-05-07T06:15:29;13.97;;;12.67;;
9294;SDS011;4686;44.496;11.324;2023-05-07T06:17:58;14.33;;;12.50;;
9294;SDS011;4686;44.496;11.324;2023-05-07T06:20:25;12.97;;;11.87;;
9294;SDS011;4686;44.496;11.324;2023-05-07T06:22:52;13.80;;;12.50;;
9294;SDS011;4686;44.496;11.324;2023-05-07T06:25:19;13.53;;;12.23;;
9294;SDS011;4686;44.496;11.324;2023-05-07T06:27:47;15.93;;;14.27;;
9294;SDS011;4686;44.496;11.324;2023-05-07T06:30:14;15.90;;;13.27;;
9294;SDS011;4686;44.496;11.324;2023-05-07T06:32:41;13.77;;;12.57;;
9294;SDS011;4686;44.496;11.324;2023-05-07T06:35:10;13.90;;;11.97;;
9294;SDS011;4686;44.496;11.324;2023-05-07T06:37:37;14.27;;;12.97;;
9294;SDS011;4686;44.496;11.324;2023-05-07T06:40:07;15.53;;;14.00;;
9294;SDS011;4686;44.496;11.324;2023-05-07T06:42:35;15.13;;;13.67;;
9294;SDS011;4686;44.496;11.324;2023-05-07T06:45:02;18.60;;;14.57;;
9294;SDS011;4686;44.496;11.324;2023-05-07T06:47:30;17.77;;;15.70;;
9294;SDS011;4686;44.496;11.324;2023-05-07T06:49:57;18.90;;;17.10;;
9294;SDS011;4686;44.496;11.324;2023-05-07T06:52:26;19.60;;;17.50;;
9294;SDS011;4686;44.496;11.324;2023-05-07T06:54:53;20.00;;;17.90;;
9294;SDS011;4686;44.496;11.324;2023-05-07T06:57:20;19.20;;;17.17;;
9294;SDS011;4686;44.496;11.324;2023-05-07T06:59:48;17.60;;;15.80;;
9294;SDS011;4686;44.496;11.324;2023-05-07T07:02:15;19.60;;;17.70;;
9294;SDS011;4686;44.496;11.324;2023-05-07T07:04:42;19.50;;;17.50;;
9294;SDS011;4686;44.496;11.324;2023-05-07T07:07:10;17.67;;;15.97;;
9294;SDS011;4686;44.496;11.324;2023-05-07T07:09:38;18.53;;;16.73;;
9294;SDS011;4686;44.496;11.324;2023-05-07T07:12:06;21.63;;;18.33;;
9294;SDS011;4686;44.496;11.324;2023-05-07T07:14:33;21.73;;;18.90;;
9294;SDS011;4686;44.496;11.324;2023-05-07T07:17:00;21.57;;;18.70;;
9294;SDS011;4686;44.496;11.324;2023-05-07T07:19:30;24.20;;;18.70;;
9294;SDS011;4686;44.496;11.324;2023-05-07T07:21:57;22.73;;;20.33;;
9294;SDS011;4686;44.496;11.324;2023-05-07T07:24:24;19.97;;;17.87;;
9294;SDS011;4686;44.496;11.324;2023-05-07T07:26:53;21.00;;;18.23;;
9294;SDS011;4686;44.496;11.324;2023-05-07T07:29:20;20.63;;;18.00;;
9294;SDS011;4686;44.496;11.324;2023-05-07T07:31:47;19.20;;;17.20;;
9294;SDS011;4686;44.496;11.324;2023-05-07T07:34:17;19.63;;;17.63;;
9294;SDS011;4686;44.496;11.324;2023-05-07T07:36:44;22.30;;;17.33;;
9294;SDS011;4686;44.496;11.324;2023-05-07T07:39:12;20.00;;;17.70;;
9294;SDS011;4686;44.496;11.324;2023-05-07T07:41:39;18.73;;;16.83;;
9294;SDS011;4686;44.496;11.324;2023-05-07T07:44:07;21.10;;;18.97;;
9294;SDS011;4686;44.496;11.324;2023-05-07T07:46:38;21.67;;;19.47;;
9294;SDS011;4686;44.496;11.324;2023-05-07T07:49:05;19.60;;;17.57;;
9294;SDS011;4686;44.496;11.324;2023-05-07T07:51:33;19.67;;;17.63;;
9294;SDS011;4686;44.496;11.324;2023-05-07T07:54:00;21.47;;;19.03;;
9294;SDS011;4686;44.496;11.324;2023-05-07T07:56:27;21.27;;;18.40;;
9294;SDS011;4686;44.496;11.324;2023-05-07T07:58:56;19.30;;;17.40;;
9294;SDS011;4686;44.496;11.324;2023-05-07T08:01:24;32.27;;;17.97;;
9294;SDS011;4686;44.496;11.324;2023-05-07T08:03:52;21.00;;;18.90;;
9294;SDS011;4686;44.496;11.324;2023-05-07T08:06:20;20.67;;;17.97;;
9294;SDS011;4686;44.496;11.324;2023-05-07T08:08:47;23.87;;;19.80;;
9294;SDS011;4686;44.496;11.324;2023-05-07T08:11:14;20.10;;;18.20;;
9294;SDS011;4686;44.496;11.324;2023-05-07T08:13:42;21.80;;;19.50;;
9294;SDS011;4686;44.496;11.324;2023-05-07T08:16:10;19.13;;;16.60;;
9294;SDS011;4686;44.496;11.324;2023-05-07T08:18:38;17.27;;;15.57;;
9294;SDS011;4686;44.496;11.324;2023-05-07T08:21:05;18.57;;;16.77;;
9294;SDS011;4686;44.496;11.324;2023-05-07T08:23:33;18.23;;;16.40;;
9294;SDS011;4686;44.496;11.324;2023-05-07T08:26:00;19.50;;;14.90;;
9294;SDS011;4686;44.496;11.324;2023-05-07T08:28:29;16.47;;;14.80;;
9294;SDS011;4686;44.496;11.324;2023-05-07T08:30:57;17.23;;;15.43;;
9294;SDS011;4686;44.496;11.324;2023-05-07T08:33:25;17.93;;;15.10;;
9294;SDS011;4686;44.496;11.324;2023-05-07T08:35:54;17.17;;;15.10;;
9294;SDS011;4686;44.496;11.324;2023-05-07T08:38:21;24.03;;;14.77;;
9294;SDS011;4686;44.496;11.324;2023-05-07T08:40:48;14.20;;;12.80;;
9294;SDS011;4686;44.496;11.324;2023-05-07T08:43:15;15.60;;;14.10;;
9294;SDS011;4686;44.496;11.324;2023-05-07T08:45:44;15.57;;;13.03;;
9294;SDS011;4686;44.496;11.324;2023-05-07T08:48:14;14.50;;;13.20;;
9294;SDS011;4686;44.496;11.324;2023-05-07T08:50:42;13.00;;;11.70;;
9294;SDS011;4686;44.496;11.324;2023-05-07T08:53:10;14.30;;;12.20;;
9294;SDS011;4686;44.496;11.324;2023-05-07T08:55:38;10.60;;;9.70;;
9294;SDS011;4686;44.496;11.324;2023-05-07T08:58:06;11.67;;;10.33;;
9294;SDS011;4686;44.496;11.324;2023-05-07T09:00:33;13.97;;;12.53;;
9294;SDS011;4686;44.496;11.324;2023-05-07T09:03:01;12.33;;;11.23;;
9294;SDS011;4686;44.496;11.324;2023-05-07T09:05:29;17.27;;;13.60;;
9294;SDS011;4686;44.496;11.324;2023-05-07T09:07:58;15.03;;;13.53;;
9294;SDS011;4686;44.496;11.324;2023-05-07T09:10:28;14.13;;;12.77;;
9294;SDS011;4686;44.496;11.324;2023-05-07T09:12:56;24.70;;;21.13;;
9294;SDS011;4686;44.496;11.324;2023-05-07T09:15:23;19.27;;;17.27;;
9294;SDS011;4686;44.496;11.324;2023-05-07T09:17:51;18.57;;;13.70;;
9294;SDS011;4686;44.496;11.324;2023-05-07T09:20:18;21.37;;;18.80;;
9294;SDS011;4686;44.496;11.324;2023-05-07T09:22:45;39.60;;;32.20;;
9294;SDS011;4686;44.496;11.324;2023-05-07T09:25:13;27.60;;;23.20;;
9294;SDS011;4686;44.496;11.324;2023-05-07T09:27:41;18.40;;;16.53;;
9294;SDS011;4686;44.496;11.324;2023-05-07T09:30:09;16.50;;;14.90;;
9294;SDS011;4686;44.496;11.324;2023-05-07T09:32:37;17.43;;;15.67;;
9294;SDS011;4686;44.496;11.324;2023-05-07T09:35:08;22.37;;;18.83;;
9294;SDS011;4686;44.496;11.324;2023-05-07T09:37:42;16.20;;;14.60;;
9294;SDS011;4686;44.496;11.324;2023-05-07T09:40:19;17.60;;;15.83;;
9294;SDS011;4686;44.496;11.324;2023-05-07T09:42:50;16.60;;;14.70;;
9294;SDS011;4686;44.496;11.324;2023-05-07T09:45:21;20.07;;;18.07;;
9294;SDS011;4686;44.496;11.324;2023-05-07T09:47:50;19.23;;;17.13;;
9294;SDS011;4686;44.496;11.324;2023-05-07T09:50:20;18.10;;;16.17;;
9294;SDS011;4686;44.496;11.324;2023-05-07T09:52:48;16.23;;;14.80;;
9294;SDS011;4686;44.496;11.324;2023-05-07T09:55:16;18.83;;;16.83;;
9294;SDS011;4686;44.496;11.324;2023-05-07T09:57:45;16.63;;;14.87;;
9294;SDS011;4686;44.496;11.324;2023-05-07T10:00:18;20.97;;;18.77;;
9294;SDS011;4686;44.496;11.324;2023-05-07T10:02:46;27.67;;;24.73;;
9294;SDS011;4686;44.496;11.324;2023-05-07T10:05:14;26.13;;;18.83;;
9294;SDS011;4686;44.496;11.324;2023-05-07T10:07:45;33.83;;;26.63;;
9294;SDS011;4686;44.496;11.324;2023-05-07T10:10:13;19.23;;;14.57;;
9294;SDS011;4686;44.496;11.324;2023-05-07T10:12:41;15.67;;;14.17;;
9294;SDS011;4686;44.496;11.324;2023-05-07T10:15:09;17.53;;;13.80;;
9294;SDS011;4686;44.496;11.324;2023-05-07T10:17:39;22.83;;;17.67;;
9294;SDS011;4686;44.496;11.324;2023-05-07T10:20:06;13.33;;;12.13;;
9294;SDS011;4686;44.496;11.324;2023-05-07T10:22:37;28.40;;;25.30;;
9294;SDS011;4686;44.496;11.324;2023-05-07T10:25:05;18.77;;;14.20;;
9294;SDS011;4686;44.496;11.324;2023-05-07T10:27:33;48.43;;;38.77;;
9294;SDS011;4686;44.496;11.324;2023-05-07T10:30:04;12.27;;;10.37;;
9294;SDS011;4686;44.496;11.324;2023-05-07T10:32:40;51.63;;;43.40;;
9294;SDS011;4686;44.496;11.324;2023-05-07T10:35:10;22.73;;;20.17;;
9294;SDS011;4686;44.496;11.324;2023-05-07T10:37:38;20.70;;;18.50;;
9294;SDS011;4686;44.496;11.324;2023-05-07T10:40:11;35.53;;;30.57;;
9294;SDS011;4686;44.496;11.324;2023-05-07T10:42:50;33.60;;;28.10;;
9294;SDS011;4686;44.496;11.324;2023-05-07T10:45:23;14.73;;;12.80;;
9294;SDS011;4686;44.496;11.324;2023-05-07T10:48:11;30.70;;;27.10;;
9294;SDS011;4686;44.496;11.324;2023-05-07T10:50:39;16.53;;;11.67;;
9294;SDS011;4686;44.496;11.324;2023-05-07T10:58:44;12.40;;;11.30;;
9294;SDS011;4686;44.496;11.324;2023-05-07T11:01:11;18.17;;;16.37;;
9294;SDS011;4686;44.496;11.324;2023-05-07T11:06:25;17.30;;;14.17;;
9294;SDS011;4686;44.496;11.324;2023-05-07T11:08:53;19.23;;;17.33;;
9294;SDS011;4686;44.496;11.324;2023-05-07T11:14:14;9.50;;;8.10;;
9294;SDS011;4686;44.496;11.324;2023-05-07T11:17:04;11.37;;;9.70;;
9294;SDS011;4686;44.496;11.324;2023-05-07T11:19:50;8.83;;;7.93;;
9294;SDS011;4686;44.496;11.324;2023-05-07T11:25:22;12.70;;;11.57;;
9294;SDS011;4686;44.496;11.324;2023-05-07T11:27:50;7.43;;;6.83;;
9294;SDS011;4686;44.496;11.324;2023-05-07T11:30:18;8.90;;;8.20;;
9294;SDS011;4686;44.496;11.324;2023-05-07T11:32:47;8.80;;;8.20;;
9294;SDS011;4686;44.496;11.324;2023-05-07T11:35:16;11.83;;;10.67;;
9294;SDS011;4686;44.496;11.324;2023-05-07T11:37:44;11.43;;;9.13;;
9294;SDS011;4686;44.496;11.324;2023-05-07T11:40:12;11.20;;;9.60;;
9294;SDS011;4686;44.496;11.324;2023-05-07T11:42:42;11.30;;;10.27;;
9294;SDS011;4686;44.496;11.324;2023-05-07T11:45:10;8.73;;;7.73;;
9294;SDS011;4686;44.496;11.324;2023-05-07T11:47:41;8.23;;;7.53;;
9294;SDS011;4686;44.496;11.324;2023-05-07T11:50:09;7.93;;;7.20;;
9294;SDS011;4686;44.496;11.324;2023-05-07T11:52:36;10.00;;;9.10;;
9294;SDS011;4686;44.496;11.324;2023-05-07T11:55:04;9.90;;;9.00;;
9294;SDS011;4686;44.496;11.324;2023-05-07T11:57:32;8.60;;;7.77;;
9294;SDS011;4686;44.496;11.324;2023-05-07T12:00:01;9.07;;;8.27;;
9294;SDS011;4686;44.496;11.324;2023-05-07T12:02:30;9.47;;;8.67;;
9294;SDS011;4686;44.496;11.324;2023-05-07T12:05:00;8.87;;;8.17;;
9294;SDS011;4686;44.496;11.324;2023-05-07T12:07:27;9.40;;;8.50;;
9294;SDS011;4686;44.496;11.324;2023-05-07T12:09:55;9.80;;;8.80;;
9294;SDS011;4686;44.496;11.324;2023-05-07T12:12:22;13.33;;;8.37;;
9294;SDS011;4686;44.496;11.324;2023-05-07T12:14:51;9.60;;;8.70;;
9294;SDS011;4686;44.496;11.324;2023-05-07T12:17:26;9.73;;;8.83;;
9294;SDS011;4686;44.496;11.324;2023-05-07T12:19:55;10.30;;;9.30;;
9294;SDS011;4686;44.496;11.324;2023-05-07T12:22:23;10.43;;;8.50;;
9294;SDS011;4686;44.496;11.324;2023-05-07T12:24:56;9.90;;;8.90;;
9294;SDS011;4686;44.496;11.324;2023-05-07T12:27:25;9.17;;;8.17;;
9294;SDS011;4686;44.496;11.324;2023-05-07T12:29:52;9.33;;;8.53;;
9294;SDS011;4686;44.496;11.324;2023-05-07T12:32:22;9.50;;;8.70;;
9294;SDS011;4686;44.496;11.324;2023-05-07T12:34:52;10.27;;;8.60;;
9294;SDS011;4686;44.496;11.324;2023-05-07T12:37:23;10.50;;;9.60;;
9294;SDS011;4686;44.496;11.324;2023-05-07T12:42:40;9.50;;;8.50;;
9294;SDS011;4686;44.496;11.324;2023-05-07T12:45:10;9.00;;;8.20;;
9294;SDS011;4686;44.496;11.324;2023-05-07T12:47:37;9.33;;;8.10;;
9294;SDS011;4686;44.496;11.324;2023-05-07T12:50:07;10.13;;;8.57;;
9294;SDS011;4686;44.496;11.324;2023-05-07T12:52:35;8.57;;;7.97;;
9294;SDS011;4686;44.496;11.324;2023-05-07T12:55:05;9.47;;;8.50;;
9294;SDS011;4686;44.496;11.324;2023-05-07T12:57:38;8.70;;;8.00;;
9294;SDS011;4686;44.496;11.324;2023-05-07T13:00:09;9.50;;;8.70;;
9294;SDS011;4686;44.496;11.324;2023-05-07T13:02:38;8.70;;;7.87;;
9294;SDS011;4686;44.496;11.324;2023-05-07T13:05:09;11.00;;;8.67;;
9294;SDS011;4686;44.496;11.324;2023-05-07T13:07:39;13.53;;;8.43;;
9294;SDS011;4686;44.496;11.324;2023-05-07T13:10:11;9.00;;;7.83;;
9294;SDS011;4686;44.496;11.324;2023-05-07T13:12:40;11.53;;;7.37;;
9294;SDS011;4686;44.496;11.324;2023-05-07T13:15:09;9.33;;;8.43;;
9294;SDS011;4686;44.496;11.324;2023-05-07T13:17:37;8.77;;;7.97;;
9294;SDS011;4686;44.496;11.324;2023-05-07T13:20:06;9.20;;;8.50;;
9294;SDS011;4686;44.496;11.324;2023-05-07T13:22:51;9.57;;;8.60;;
9294;SDS011;4686;44.496;11.324;2023-05-07T13:25:27;9.80;;;8.70;;
9294;SDS011;4686;44.496;11.324;2023-05-07T13:27:56;8.97;;;8.07;;
9294;SDS011;4686;44.496;11.324;2023-05-07T13:30:24;10.00;;;9.10;;
9294;SDS011;4686;44.496;11.324;2023-05-07T13:32:53;10.03;;;9.20;;
9294;SDS011;4686;44.496;11.324;2023-05-07T13:35:22;10.17;;;8.63;;
9294;SDS011;4686;44.496;11.324;2023-05-07T13:37:55;9.70;;;8.87;;
9294;SDS011;4686;44.496;11.324;2023-05-07T13:40:22;8.57;;;7.67;;
9294;SDS011;4686;44.496;11.324;2023-05-07T13:42:50;9.53;;;8.63;;
9294;SDS011;4686;44.496;11.324;2023-05-07T13:45:21;8.37;;;7.37;;
9294;SDS011;4686;44.496;11.324;2023-05-07T13:47:51;9.00;;;8.20;;
9294;SDS011;4686;44.496;11.324;2023-05-07T13:50:21;9.50;;;8.70;;
9294;SDS011;4686;44.496;11.324;2023-05-07T13:53:16;8.77;;;7.90;;
9294;SDS011;4686;44.496;11.324;2023-05-07T13:55:49;8.50;;;7.77;;
9294;SDS011;4686;44.496;11.324;2023-05-07T13:58:19;7.23;;;6.63;;
9294;SDS011;4686;44.496;11.324;2023-05-07T14:01:01;9.80;;;9.00;;
9294;SDS011;4686;44.496;11.324;2023-05-07T14:03:37;9.23;;;8.43;;
9294;SDS011;4686;44.496;11.324;2023-05-07T14:09:06;9.13;;;8.33;;
9294;SDS011;4686;44.496;11.324;2023-05-07T14:11:34;8.70;;;8.00;;
9294;SDS011;4686;44.496;11.324;2023-05-07T14:14:02;9.30;;;8.50;;
9294;SDS011;4686;44.496;11.324;2023-05-07T14:16:30;8.50;;;7.80;;
9294;SDS011;4686;44.496;11.324;2023-05-07T14:18:58;8.43;;;7.77;;
9294;SDS011;4686;44.496;11.324;2023-05-07T14:21:29;7.30;;;6.70;;
9294;SDS011;4686;44.496;11.324;2023-05-07T14:23:58;11.73;;;8.13;;
9294;SDS011;4686;44.496;11.324;2023-05-07T14:26:27;7.57;;;6.97;;
9294;SDS011;4686;44.496;11.324;2023-05-07T14:28:55;7.60;;;7.00;;
9294;SDS011;4686;44.496;11.324;2023-05-07T14:31:27;9.67;;;7.77;;
9294;SDS011;4686;44.496;11.324;2023-05-07T14:33:55;8.00;;;7.37;;
9294;SDS011;4686;44.496;11.324;2023-05-07T14:36:24;8.63;;;7.93;;
9294;SDS011;4686;44.496;11.324;2023-05-07T14:38:53;6.87;;;6.37;;
9294;SDS011;4686;44.496;11.324;2023-05-07T14:41:20;7.63;;;6.93;;
9294;SDS011;4686;44.496;11.324;2023-05-07T14:43:48;7.37;;;6.50;;
9294;SDS011;4686;44.496;11.324;2023-05-07T14:46:16;8.73;;;7.90;;
9294;SDS011;4686;44.496;11.324;2023-05-07T14:48:44;10.83;;;9.87;;
9294;SDS011;4686;44.496;11.324;2023-05-07T14:51:11;31.50;;;25.77;;
9294;SDS011;4686;44.496;11.324;2023-05-07T14:53:38;11.50;;;10.30;;
9294;SDS011;4686;44.496;11.324;2023-05-07T14:56:06;83.63;;;63.27;;
9294;SDS011;4686;44.496;11.324;2023-05-07T14:58:33;79.87;;;60.70;;
9294;SDS011;4686;44.496;11.324;2023-05-07T15:01:10;73.03;;;56.00;;
9294;SDS011;4686;44.496;11.324;2023-05-07T15:03:39;78.93;;;59.27;;
9294;SDS011;4686;44.496;11.324;2023-05-07T15:06:07;44.40;;;34.17;;
9294;SDS011;4686;44.496;11.324;2023-05-07T15:08:34;55.43;;;43.80;;
9294;SDS011;4686;44.496;11.324;2023-05-07T15:11:03;43.10;;;34.40;;
9294;SDS011;4686;44.496;11.324;2023-05-07T15:13:33;40.63;;;34.00;;
9294;SDS011;4686;44.496;11.324;2023-05-07T15:16:05;39.00;;;30.87;;
9294;SDS011;4686;44.496;11.324;2023-05-07T15:18:41;36.10;;;30.80;;